»·PEaware :: N251CV KSNA-KLAS

N251CV :: KSNA-KLAS

FLIGHT INFORMATION

Flight Status: Arrived
Operator: Privately registered:
United States
More flights under this callsign
Pilot: Anthony R. (29179)
Aircraft: CIRRUS VISIONJET
(SF50)
More flights by this aircraft type
Origin: KSNA John Wayne-Orange Co
United States
Destination: KLAS McCarran Intl
United States
More flights between these airports :: More routes between these airports
Route: FINZZ3 MISEN KEPEC6
File this flight plan on PilotEdge
Remarks:
Altitude:
(Current/Filed)
25,000ft
Speed:
(Current/Filed)
300kts
Departed: 10-Jan-21 09:07 AM
Arrived: 10-Jan-21 10:16 AM
Distance/Time
Traveled:
206nm/1:08
Distance/Time
To Go:
Arrived

Flight Plot

Page will automatically refresh every two minutes.

Flight plan parsing failed; only flown route is shown


Map Options




Map Legend


Flown Route
Filed Route
Departure Airport
Arrival Airport
Navaid (VOR, NDB)
Fix

Horizontal Profiles

Position Reports

Time Latitude Longitude Heading Altitude Ground
Speed
10-Jan-21 08:51 33.674464 -117.871760 127 60ft 0kts
10-Jan-21 08:52 33.674464 -117.871760 127 60ft 0kts
10-Jan-21 08:53 33.674464 -117.871760 127 60ft 0kts
10-Jan-21 08:54 33.674464 -117.871760 127 60ft 0kts
10-Jan-21 08:55 33.674464 -117.871760 127 60ft 0kts
10-Jan-21 08:56 33.674464 -117.871760 127 60ft 0kts
10-Jan-21 08:57 33.674464 -117.871760 127 60ft 0kts
10-Jan-21 08:58 33.674464 -117.871760 127 60ft 0kts
10-Jan-21 08:59 33.674464 -117.871760 127 60ft 0kts
10-Jan-21 09:00 33.674464 -117.871760 127 60ft 0kts
10-Jan-21 09:01 33.674464 -117.871760 127 60ft 0kts
10-Jan-21 09:02 33.674374 -117.871247 62 60ft 6kts
10-Jan-21 09:04 33.677641 -117.869090 27 60ft 18kts
10-Jan-21 09:05 33.681924 -117.866229 81 60ft 0kts
10-Jan-21 09:06 33.681917 -117.865990 102 60ft 7kts
10-Jan-21 09:07 33.668580 -117.873369 207 423ft 117kts
10-Jan-21 09:08 33.620138 -117.890378 188 1796ft 226kts
10-Jan-21 09:09 33.559862 -117.912971 223 4440ft 229kts
10-Jan-21 09:10 33.513689 -117.964623 227 7029ft 228kts
10-Jan-21 09:11 33.503857 -118.030067 309 8009ft 225kts
10-Jan-21 09:12 33.545449 -118.085192 316 9257ft 213kts
10-Jan-21 09:13 33.595974 -118.122023 7 10606ft 234kts
10-Jan-21 09:14 33.653106 -118.092594 18 12647ft 228kts
10-Jan-21 09:15 33.710742 -118.059037 18 14124ft 234kts
10-Jan-21 09:16 33.769886 -118.024554 18 15450ft 239kts
10-Jan-21 09:17 33.830292 -117.989275 18 16650ft 244kts
10-Jan-21 09:18 33.894281 -117.951864 18 17036ft 271kts
10-Jan-21 09:18 33.943487 -117.910861 28 18372ft 259kts
10-Jan-21 09:20 34.011362 -117.848786 28 19402ft 265kts
10-Jan-21 09:21 34.070628 -117.794491 28 20185ft 270kts
10-Jan-21 09:21 34.109383 -117.747684 38 20233ft 212kts
10-Jan-21 09:22 34.151751 -117.685183 41 20397ft 267kts
10-Jan-21 09:24 34.207235 -117.602695 41 21384ft 275kts
10-Jan-21 09:24 34.247410 -117.542859 41 22206ft 272kts
10-Jan-21 09:25 34.295613 -117.471022 41 23003ft 277kts
10-Jan-21 09:26 34.344443 -117.398064 41 23725ft 282kts
10-Jan-21 09:27 34.394033 -117.323819 41 24359ft 286kts
10-Jan-21 09:28 34.444455 -117.248170 41 24893ft 291kts
10-Jan-21 09:29 34.496108 -117.170499 41 25223ft 299kts
10-Jan-21 09:30 34.547674 -117.093084 40 25316ft 276kts
10-Jan-21 09:31 34.593689 -117.026068 39 25336ft 245kts
10-Jan-21 09:32 34.636678 -116.963468 39 25344ft 237kts
10-Jan-21 09:33 34.679154 -116.901489 40 25353ft 241kts
10-Jan-21 09:34 34.722227 -116.838472 40 25355ft 244kts
10-Jan-21 09:35 34.765712 -116.774742 40 25356ft 246kts
10-Jan-21 09:36 34.809519 -116.710426 40 25356ft 247kts
10-Jan-21 09:37 34.853957 -116.646389 32 25357ft 242kts
10-Jan-21 09:38 34.905750 -116.594895 29 25355ft 240kts
10-Jan-21 09:39 34.958002 -116.544214 29 25351ft 241kts
10-Jan-21 09:40 35.010649 -116.493110 29 25343ft 242kts
10-Jan-21 09:41 35.063922 -116.441348 29 24735ft 252kts
10-Jan-21 09:42 35.117289 -116.384956 36 24335ft 254kts
10-Jan-21 09:43 35.166333 -116.323852 37 24329ft 250kts
10-Jan-21 09:44 35.215525 -116.262230 37 23516ft 258kts
10-Jan-21 09:45 35.265803 -116.199081 37 22363ft 259kts
10-Jan-21 09:46 35.316010 -116.135907 38 21213ft 259kts
10-Jan-21 09:47 35.365898 -116.073017 38 20070ft 256kts
10-Jan-21 09:48 35.415287 -116.010643 38 18939ft 254kts
10-Jan-21 09:49 35.464062 -115.948928 38 17821ft 251kts
10-Jan-21 09:50 35.512353 -115.887715 39 16713ft 248kts
10-Jan-21 09:51 35.560005 -115.827196 39 15619ft 245kts
10-Jan-21 09:52 35.607119 -115.767258 39 14538ft 243kts
10-Jan-21 09:53 35.653704 -115.707885 39 13468ft 241kts
10-Jan-21 09:54 35.698682 -115.650401 39 12996ft 218kts
10-Jan-21 09:55 35.738805 -115.599108 38 12998ft 201kts
10-Jan-21 09:56 35.786516 -115.574203 1 13000ft 194kts
10-Jan-21 09:57 35.844230 -115.570722 0 12999ft 217kts
10-Jan-21 09:58 35.906035 -115.567245 0 12994ft 226kts
10-Jan-21 09:59 35.967701 -115.554416 32 12991ft 239kts
10-Jan-21 10:00 35.998473 -115.478163 61 12305ft 250kts
10-Jan-21 10:01 36.023486 -115.399299 61 11215ft 243kts
10-Jan-21 10:02 36.027032 -115.319214 88 10979ft 224kts
10-Jan-21 10:03 36.021250 -115.239160 90 9664ft 240kts
10-Jan-21 10:04 36.015482 -115.156787 91 8247ft 241kts
10-Jan-21 10:05 36.009970 -115.074983 91 7014ft 232kts
10-Jan-21 10:06 36.039830 -115.027148 11 6840ft 200kts
10-Jan-21 10:07 36.096921 -115.011183 11 5996ft 211kts
10-Jan-21 10:08 36.151324 -114.996379 11 5986ft 192kts
10-Jan-21 10:09 36.202562 -114.984412 347 5986ft 184kts
10-Jan-21 10:10 36.208110 -115.036224 217 5236ft 218kts
10-Jan-21 10:11 36.164427 -115.085706 227 3810ft 180kts
10-Jan-21 10:12 36.140268 -115.124522 251 3065ft 125kts
10-Jan-21 10:13 36.113328 -115.148538 207 2465ft 120kts
10-Jan-21 10:14 36.085262 -115.164712 205 2142ft 80kts
10-Jan-21 10:15 36.082476 -115.167589 291 2159ft 0kts
10-Jan-21 10:16 36.082593 -115.168428 232 2162ft 6kts
10-Jan-21 10:17 36.080914 -115.171034 218 2170ft 9kts
10-Jan-21 10:18 36.200672 -115.043709 221 5070ft 222kts

Navigation Log

Ident Type
Flight plan parsing failed, navigation log unavailable